Time;durP1;ratioP1;P1;durP2;ratioP2;P2;SDS_P1;SDS_P2;PMS_P1;PMS_P2;Temp;Humidity;BMP_temperature;BMP_pressure;BME280_temperature;BME280_humidity;BME280_pressure;Samples;Min_cycle;Max_cycle;Signal;HPM_P1;HPM_P2
2023/10/23 00:01:35;;;;;;;;;;;9.30;82.90;;;;;;4127739;28;20387;-83
2023/10/23 00:03:36;;;;;;;;;;;9.20;82.80;;;;;;4148142;28;19936;-83
2023/10/23 00:05:37;;;;;;;;;;;9.20;82.80;;;;;;4129489;28;20372;-83
2023/10/23 00:07:37;;;;;;;;;;;9.20;82.90;;;;;;4121939;28;19914;-82
2023/10/23 00:09:38;;;;;;;;;;;9.10;82.80;;;;;;4125225;28;20408;-82
2023/10/23 00:11:46;;;;;;;;;;;9.20;82.90;;;;;;4108670;28;19914;-83
2023/10/23 00:14:07;;;;;;;;;;;9.10;82.90;;;;;;4150560;28;19918;-83
2023/10/23 00:16:07;;;;;;;;;;;9.10;82.90;;;;;;4129809;28;19917;-83
2023/10/23 00:18:09;;;;;;;;;;;9.10;82.90;;;;;;4127473;28;19921;-83
2023/10/23 00:20:27;;;;;;;;;;;9.20;83.00;;;;;;4144167;28;19921;-83
2023/10/23 00:22:28;;;;;;;;;;;9.00;82.90;;;;;;4129003;28;19921;-82
2023/10/23 00:24:48;;;;;;;;;;;9.00;83.00;;;;;;4142006;28;20000;-83
2023/10/23 00:26:49;;;;;;;;;;;9.10;83.00;;;;;;4141188;28;19918;-81
2023/10/23 00:29:09;;;;;;;;;;;9.10;83.00;;;;;;4142745;28;19925;-82
2023/10/23 00:31:30;;;;;;;;;;;9.00;83.00;;;;;;4145160;28;20369;-82
2023/10/23 00:33:51;;;;;;;;;;;9.00;83.10;;;;;;4150185;28;20483;-82
2023/10/23 00:36:11;;;;;;;;;;;9.00;83.10;;;;;;4152543;28;19924;-83
2023/10/23 00:38:32;;;;;;;;;;;8.90;83.00;;;;;;4144819;28;20347;-83
2023/10/23 00:40:52;;;;;;;;;;;8.90;83.00;;;;;;4130504;28;20278;-83
2023/10/23 00:43:17;;;;;;;;;;;8.90;83.00;;;;;;4147778;28;19917;-83
2023/10/23 00:45:48;;;;;;;;;;;8.90;83.10;;;;;;4131782;28;19914;-83
2023/10/23 00:48:09;;;;;;;;;;;8.90;83.10;;;;;;4148329;28;20497;-83
2023/10/23 00:50:29;;;;;;;;;;;8.90;83.20;;;;;;4134786;28;19922;-82
2023/10/23 00:52:30;;;;;;;;;;;9.00;83.20;;;;;;4128153;28;19944;-83
2023/10/23 00:54:32;;;;;;;;;;;8.80;83.20;;;;;;4148537;28;20024;-81
2023/10/23 00:56:34;;;;;;;;;;;8.80;83.20;;;;;;4131120;28;19918;-83
2023/10/23 00:58:37;;;;;;;;;;;8.80;83.20;;;;;;4121899;28;19914;-83
2023/10/23 01:00:39;;;;;;;;;;;8.80;83.30;;;;;;4142949;28;19917;-82
2023/10/23 01:03:00;;;;;;;;;;;8.80;83.20;;;;;;4144154;28;19926;-82
2023/10/23 01:05:15;;;;;;;;;;;8.80;83.30;;;;;;4131083;28;19933;-83
2023/10/23 01:07:36;;;;;;;;;;;8.70;83.20;;;;;;4146388;28;19918;-82
2023/10/23 01:09:56;;;;;;;;;;;8.70;83.30;;;;;;4148899;28;19913;-83
2023/10/23 01:12:17;;;;;;;;;;;8.70;83.40;;;;;;4137855;28;20557;-81
2023/10/23 01:14:37;;;;;;;;;;;8.70;83.50;;;;;;4144903;28;19950;-81
2023/10/23 01:16:58;;;;;;;;;;;8.70;83.60;;;;;;4158764;28;19922;-80
2023/10/23 01:19:18;;;;;;;;;;;8.70;83.80;;;;;;4160044;28;19918;-80
2023/10/23 01:21:39;;;;;;;;;;;8.70;83.90;;;;;;4157372;28;19924;-80
2023/10/23 01:23:41;;;;;;;;;;;8.70;83.90;;;;;;4137154;28;19926;-81
2023/10/23 01:26:02;;;;;;;;;;;8.80;84.10;;;;;;4162159;28;19960;-80
2023/10/23 01:28:22;;;;;;;;;;;8.80;84.10;;;;;;4146877;28;20516;-83
2023/10/23 01:30:43;;;;;;;;;;;8.80;84.10;;;;;;4157825;28;19987;-81
2023/10/23 01:33:03;;;;;;;;;;;8.80;84.10;;;;;;4153769;28;20380;-81
2023/10/23 01:35:24;;;;;;;;;;;8.80;84.20;;;;;;4143499;28;19921;-83
2023/10/23 01:37:45;;;;;;;;;;;8.90;84.20;;;;;;4144076;28;19987;-83
2023/10/23 01:40:06;;;;;;;;;;;8.90;84.20;;;;;;4127921;28;19918;-82
2023/10/23 01:42:28;;;;;;;;;;;8.90;84.20;;;;;;4139221;28;19948;-82
2023/10/23 01:44:49;;;;;;;;;;;8.90;84.30;;;;;;4136346;28;19949;-82
2023/10/23 01:47:09;;;;;;;;;;;9.00;84.30;;;;;;4149413;28;20307;-81
2023/10/23 01:50:02;;;;;;;;;;;;;;;;;;;;;
2023/10/23 01:52:22;;;;;;;;;;;9.00;84.20;;;;;;4145042;28;20274;-82
2023/10/23 01:55:04;;;;;;;;;;;9.00;84.30;;;;;;4145276;28;20411;-81
2023/10/23 01:57:27;;;;;;;;;;;9.00;84.20;;;;;;4149198;28;20447;-83
2023/10/23 02:00:19;;;;;;;;;;;9.00;84.20;;;;;;4120266;28;19928;-81
2023/10/23 02:02:39;;;;;;;;;;;9.00;84.10;;;;;;4128978;28;20339;-82
2023/10/23 02:04:40;;;;;;;;;;;9.10;84.20;;;;;;4126852;28;19925;-81
2023/10/23 02:06:41;;;;;;;;;;;8.90;84.00;;;;;;4225467;23;19964;-80
2023/10/23 02:08:42;;;;;;;;;;;8.90;84.10;;;;;;4162513;28;19951;-82
2023/10/23 02:10:42;;;;;;;;;;;9.00;84.00;;;;;;4128916;28;19922;-81
2023/10/23 02:12:43;;;;;;;;;;;8.90;84.00;;;;;;4164384;28;19917;-81
2023/10/23 02:14:43;;;;;;;;;;;8.90;84.00;;;;;;4166341;28;19952;-81
2023/10/23 02:16:44;;;;;;;;;;;8.90;84.00;;;;;;4130751;28;19914;-81
2023/10/23 02:18:47;;;;;;;;;;;9.00;84.10;;;;;;4128848;28;19922;-82
2023/10/23 02:20:54;;;;;;;;;;;9.00;84.00;;;;;;4162978;28;19932;-82
2023/10/23 02:22:55;;;;;;;;;;;8.90;83.90;;;;;;4165386;28;19921;-81
2023/10/23 02:25:15;;;;;;;;;;;8.90;83.90;;;;;;4163713;28;20786;-82
2023/10/23 02:27:36;;;;;;;;;;;8.90;83.90;;;;;;4148121;28;19913;-81
2023/10/23 02:29:56;;;;;;;;;;;8.80;83.90;;;;;;4160649;28;20314;-80
2023/10/23 02:32:17;;;;;;;;;;;8.80;83.90;;;;;;4165462;28;19913;-82
2023/10/23 02:34:37;;;;;;;;;;;8.80;83.90;;;;;;4163847;28;20298;-82
2023/10/23 02:36:58;;;;;;;;;;;8.90;84.10;;;;;;4166089;28;19921;-81
2023/10/23 02:39:18;;;;;;;;;;;8.80;84.00;;;;;;4163678;28;20079;-82
2023/10/23 02:41:39;;;;;;;;;;;8.90;84.00;;;;;;4163160;28;20338;-81
2023/10/23 02:43:59;;;;;;;;;;;8.90;84.10;;;;;;4174542;28;19968;-81
2023/10/23 02:46:20;;;;;;;;;;;8.70;83.90;;;;;;4168213;28;20361;-82
2023/10/23 02:48:40;;;;;;;;;;;8.70;84.00;;;;;;4149251;28;20311;-82
2023/10/23 02:50:41;;;;;;;;;;;8.70;84.00;;;;;;4169317;28;19980;-80
2023/10/23 02:52:41;;;;;;;;;;;8.70;83.90;;;;;;4162528;28;19932;-81
2023/10/23 02:54:42;;;;;;;;;;;8.80;84.10;;;;;;4142524;28;19924;-82
2023/10/23 02:56:42;;;;;;;;;;;8.70;84.00;;;;;;4142925;28;20104;-81
2023/10/23 02:58:43;;;;;;;;;;;8.60;84.00;;;;;;4161654;28;19960;-81
2023/10/23 03:00:44;;;;;;;;;;;8.60;84.10;;;;;;4159767;28;19959;-80
2023/10/23 03:02:44;;;;;;;;;;;8.60;84.10;;;;;;4161726;28;19925;-81
2023/10/23 03:04:45;;;;;;;;;;;8.70;84.10;;;;;;4145172;28;19976;-82
2023/10/23 03:06:46;;;;;;;;;;;8.60;84.10;;;;;;4163558;28;19921;-82
2023/10/23 03:08:46;;;;;;;;;;;8.60;84.10;;;;;;4158963;28;19956;-81
2023/10/23 03:10:47;;;;;;;;;;;8.70;84.10;;;;;;4130839;28;19952;-80
2023/10/23 03:12:48;;;;;;;;;;;8.60;84.10;;;;;;4176907;28;19920;-80
2023/10/23 03:14:48;;;;;;;;;;;8.60;84.10;;;;;;4182366;28;20008;-81
2023/10/23 03:16:49;;;;;;;;;;;8.60;84.00;;;;;;4180047;28;19949;-80
2023/10/23 03:18:49;;;;;;;;;;;8.60;84.10;;;;;;4180685;28;19920;-79
2023/10/23 03:20:50;;;;;;;;;;;8.60;84.10;;;;;;4170260;28;20011;-82
2023/10/23 03:22:50;;;;;;;;;;;8.50;84.10;;;;;;4166787;28;20394;-82
2023/10/23 03:24:51;;;;;;;;;;;8.50;84.20;;;;;;4165888;28;20011;-82
2023/10/23 03:26:52;;;;;;;;;;;8.50;84.20;;;;;;4165725;28;20012;-82
2023/10/23 03:28:52;;;;;;;;;;;8.50;84.20;;;;;;4132046;28;20569;-81
2023/10/23 03:30:53;;;;;;;;;;;8.50;84.20;;;;;;4165100;28;19928;-81
2023/10/23 03:32:54;;;;;;;;;;;8.50;84.10;;;;;;4142665;28;20599;-82
2023/10/23 03:34:57;;;;;;;;;;;8.50;84.20;;;;;;4148418;28;19964;-81
2023/10/23 03:37:17;;;;;;;;;;;8.50;84.20;;;;;;4165496;28;20318;-81
2023/10/23 03:39:38;;;;;;;;;;;8.50;84.20;;;;;;4164777;28;20667;-81
2023/10/23 03:41:59;;;;;;;;;;;8.50;84.20;;;;;;4162722;28;20611;-82
2023/10/23 03:44:19;;;;;;;;;;;8.40;84.20;;;;;;4164228;28;19953;-82
2023/10/23 03:46:40;;;;;;;;;;;8.50;84.40;;;;;;4150208;28;20358;-81
2023/10/23 03:49:00;;;;;;;;;;;8.40;84.30;;;;;;4161865;28;20310;-82
2023/10/23 03:51:21;;;;;;;;;;;8.60;84.40;;;;;;4163395;28;19913;-82
2023/10/23 03:53:41;;;;;;;;;;;8.50;84.40;;;;;;4164018;28;20349;-82
2023/10/23 03:56:08;;;;;;;;;;;8.50;84.50;;;;;;4150365;28;20343;-81
2023/10/23 03:58:28;;;;;;;;;;;8.50;84.50;;;;;;4161039;28;20211;-81
2023/10/23 04:00:30;;;;;;;;;;;8.50;84.70;;;;;;4163788;28;20120;-82
2023/10/23 04:02:31;;;;;;;;;;;8.50;84.60;;;;;;4161696;28;19925;-81
2023/10/23 04:04:31;;;;;;;;;;;8.50;84.60;;;;;;4163503;28;20351;-83
2023/10/23 04:06:32;;;;;;;;;;;8.50;84.60;;;;;;4158789;28;19917;-81
2023/10/23 04:08:32;;;;;;;;;;;8.60;84.80;;;;;;4158968;28;19993;-82
2023/10/23 04:10:33;;;;;;;;;;;8.50;84.80;;;;;;4164613;28;19980;-82
2023/10/23 04:12:34;;;;;;;;;;;8.50;84.80;;;;;;4129984;28;19914;-81
2023/10/23 04:14:34;;;;;;;;;;;8.50;84.80;;;;;;4164464;28;19917;-81
2023/10/23 04:16:35;;;;;;;;;;;8.60;84.90;;;;;;4158114;28;20383;-82
2023/10/23 04:18:36;;;;;;;;;;;8.60;84.90;;;;;;4163093;28;20395;-81
2023/10/23 04:20:36;;;;;;;;;;;8.60;84.90;;;;;;4147718;28;19952;-81
2023/10/23 04:22:37;;;;;;;;;;;8.60;84.90;;;;;;4157650;28;20001;-82
2023/10/23 04:24:37;;;;;;;;;;;8.70;85.00;;;;;;4124835;28;19951;-82
2023/10/23 04:26:40;;;;;;;;;;;8.70;85.00;;;;;;4142036;28;20316;-82
2023/10/23 04:28:45;;;;;;;;;;;8.70;85.00;;;;;;4144467;28;19921;-82
2023/10/23 04:30:49;;;;;;;;;;;8.60;85.00;;;;;;4154908;28;19920;-82
2023/10/23 04:32:50;;;;;;;;;;;8.70;85.10;;;;;;4143635;28;20292;-82
2023/10/23 04:34:50;;;;;;;;;;;8.70;85.10;;;;;;4162310;28;20000;-82
2023/10/23 04:36:51;;;;;;;;;;;8.70;85.10;;;;;;4162857;28;19959;-81
2023/10/23 04:38:51;;;;;;;;;;;8.80;85.30;;;;;;4143176;28;19921;-82
2023/10/23 04:40:55;;;;;;;;;;;8.70;85.10;;;;;;4137417;28;19922;-81
2023/10/23 04:42:56;;;;;;;;;;;8.70;85.00;;;;;;4134071;28;19929;-82
2023/10/23 04:44:58;;;;;;;;;;;8.70;85.00;;;;;;4143229;28;19922;-83
2023/10/23 04:46:58;;;;;;;;;;;8.70;85.00;;;;;;4162014;28;20157;-82
2023/10/23 04:49:00;;;;;;;;;;;8.70;85.00;;;;;;4156696;28;19928;-81
2023/10/23 04:51:20;;;;;;;;;;;8.70;84.90;;;;;;4157312;28;20323;-80
2023/10/23 04:53:40;;;;;;;;;;;8.70;84.80;;;;;;4168515;28;20318;-80
2023/10/23 04:56:03;;;;;;;;;;;8.70;84.80;;;;;;4149932;28;20417;-82
2023/10/23 04:58:24;;;;;;;;;;;8.70;84.80;;;;;;4158988;28;20000;-82
2023/10/23 05:00:44;;;;;;;;;;;8.70;84.70;;;;;;4157022;28;19931;-82
2023/10/23 05:03:05;;;;;;;;;;;8.80;84.80;;;;;;4160145;28;21511;-83
2023/10/23 05:05:25;;;;;;;;;;;8.60;84.60;;;;;;4160822;28;19971;-82
2023/10/23 05:07:46;;;;;;;;;;;8.60;84.60;;;;;;4162679;28;20464;-82
2023/10/23 05:10:07;;;;;;;;;;;8.50;84.50;;;;;;4145988;28;20618;-82
2023/10/23 05:12:31;;;;;;;;;;;8.50;84.40;;;;;;4163681;28;20341;-82
2023/10/23 05:14:51;;;;;;;;;;;8.60;84.50;;;;;;4157229;28;19920;-82
2023/10/23 05:17:12;;;;;;;;;;;8.50;84.40;;;;;;4150525;28;20381;-81
2023/10/23 05:19:33;;;;;;;;;;;8.50;84.40;;;;;;4150690;28;20385;-81
2023/10/23 05:21:54;;;;;;;;;;;8.50;84.30;;;;;;4150375;28;20373;-81
2023/10/23 05:23:54;;;;;;;;;;;8.40;84.20;;;;;;4155095;28;20012;-81
2023/10/23 05:25:55;;;;;;;;;;;8.40;84.20;;;;;;4150207;28;19917;-82
2023/10/23 05:27:55;;;;;;;;;;;8.40;84.20;;;;;;4139654;28;19917;-82
2023/10/23 05:29:56;;;;;;;;;;;8.40;84.20;;;;;;4156554;28;19970;-81
2023/10/23 05:31:57;;;;;;;;;;;8.40;84.20;;;;;;4151555;28;20000;-81
2023/10/23 05:33:57;;;;;;;;;;;8.40;84.10;;;;;;4138350;28;19925;-81
2023/10/23 05:36:04;;;;;;;;;;;8.30;84.70;;;;;;4142093;28;19922;-81
2023/10/23 05:38:05;;;;;;;;;;;8.30;84.10;;;;;;4154513;28;20578;-83
2023/10/23 05:40:06;;;;;;;;;;;8.30;84.10;;;;;;4151023;28;19971;-81
2023/10/23 05:42:06;;;;;;;;;;;8.20;84.00;;;;;;4134235;28;19977;-80
2023/10/23 05:44:08;;;;;;;;;;;8.20;84.10;;;;;;4137426;28;19928;-81
2023/10/23 05:46:09;;;;;;;;;;;8.30;84.20;;;;;;4120604;28;20392;-82
2023/10/23 05:48:30;;;;;;;;;;;8.10;84.10;;;;;;4155566;28;19921;-81
2023/10/23 05:51:04;;;;;;;;;;;8.30;84.20;;;;;;4156060;28;19919;-81
2023/10/23 05:53:25;;;;;;;;;;;8.20;84.20;;;;;;4160318;28;20007;-82
2023/10/23 05:55:45;;;;;;;;;;;8.10;84.20;;;;;;4154654;28;19941;-82
2023/10/23 05:58:06;;;;;;;;;;;8.10;84.20;;;;;;4155698;28;20313;-81
2023/10/23 06:00:29;;;;;;;;;;;8.10;84.10;;;;;;4146726;28;19924;-81
2023/10/23 06:02:50;;;;;;;;;;;8.10;84.10;;;;;;4165270;28;19992;-81
2023/10/23 06:05:11;;;;;;;;;;;8.10;84.10;;;;;;4161520;28;20407;-82
2023/10/23 06:07:31;;;;;;;;;;;8.00;84.10;;;;;;4164742;28;20498;-82
2023/10/23 06:09:52;;;;;;;;;;;8.00;84.20;;;;;;4162173;28;20568;-81
2023/10/23 06:12:14;;;;;;;;;;;8.00;84.10;;;;;;4149347;28;19913;-81
2023/10/23 06:14:15;;;;;;;;;;;8.00;84.10;;;;;;4164740;28;19917;-81
2023/10/23 06:16:16;;;;;;;;;;;7.90;84.10;;;;;;4158851;28;20481;-82
2023/10/23 06:18:16;;;;;;;;;;;8.00;84.10;;;;;;4157086;28;19983;-82
2023/10/23 06:20:17;;;;;;;;;;;7.90;84.10;;;;;;4156621;28;19925;-81
2023/10/23 06:22:17;;;;;;;;;;;7.90;84.10;;;;;;4124588;28;20029;-81
2023/10/23 06:24:18;;;;;;;;;;;7.90;84.10;;;;;;4153664;28;19980;-82
2023/10/23 06:26:38;;;;;;;;;;;7.90;84.10;;;;;;4127841;28;19948;-81
2023/10/23 06:28:39;;;;;;;;;;;7.80;84.00;;;;;;4157498;28;20146;-81
2023/10/23 06:31:03;;;;;;;;;;;7.80;84.00;;;;;;4145283;28;19945;-81
2023/10/23 06:33:24;;;;;;;;;;;7.80;84.10;;;;;;4162165;28;19924;-82
2023/10/23 06:35:57;;;;;;;;;;;7.80;84.10;;;;;;4149437;28;19913;-82
2023/10/23 06:38:18;;;;;;;;;;;7.80;84.20;;;;;;4143220;28;19941;-81
2023/10/23 06:40:38;;;;;;;;;;;7.90;84.30;;;;;;4165062;28;19917;-82
2023/10/23 06:42:59;;;;;;;;;;;7.90;84.30;;;;;;4158383;28;20280;-82
2023/10/23 06:45:19;;;;;;;;;;;7.80;84.30;;;;;;4163401;28;19921;-82
2023/10/23 06:47:40;;;;;;;;;;;7.80;84.20;;;;;;4164128;28;20112;-81
2023/10/23 06:49:42;;;;;;;;;;;7.80;84.30;;;;;;4161459;28;19917;-81
2023/10/23 06:51:43;;;;;;;;;;;7.80;84.30;;;;;;4159629;28;20365;-81
2023/10/23 06:53:43;;;;;;;;;;;7.70;84.30;;;;;;4141697;28;19961;-82
2023/10/23 06:55:51;;;;;;;;;;;7.80;84.40;;;;;;4160828;28;19913;-82
2023/10/23 06:57:52;;;;;;;;;;;7.80;84.40;;;;;;4142493;28;19922;-82
2023/10/23 06:59:54;;;;;;;;;;;7.80;84.60;;;;;;4151685;28;19960;-82
2023/10/23 07:01:54;;;;;;;;;;;7.80;84.70;;;;;;4142281;28;20170;-82
2023/10/23 07:03:55;;;;;;;;;;;7.80;84.70;;;;;;4150192;28;19929;-81
2023/10/23 07:05:56;;;;;;;;;;;7.80;84.90;;;;;;4147265;28;19926;-83
2023/10/23 07:07:57;;;;;;;;;;;7.90;85.00;;;;;;4133515;28;19926;-82
2023/10/23 07:10:03;;;;;;;;;;;7.90;85.10;;;;;;4154055;28;19918;-81
2023/10/23 07:12:24;;;;;;;;;;;7.90;85.10;;;;;;4165358;28;20241;-82
2023/10/23 07:14:45;;;;;;;;;;;8.00;85.30;;;;;;4160474;28;19968;-82
2023/10/23 07:17:05;;;;;;;;;;;8.00;85.30;;;;;;4158664;28;19913;-81
2023/10/23 07:19:26;;;;;;;;;;;8.00;85.30;;;;;;4161549;28;19990;-82
2023/10/23 07:21:46;;;;;;;;;;;8.20;85.40;;;;;;4162771;28;20243;-81
2023/10/23 07:24:07;;;;;;;;;;;8.00;85.30;;;;;;4161506;28;19924;-82
2023/10/23 07:26:27;;;;;;;;;;;8.10;85.30;;;;;;4161448;28;20015;-82
2023/10/23 07:28:48;;;;;;;;;;;8.10;85.30;;;;;;4158591;28;19917;-82
2023/10/23 07:31:10;;;;;;;;;;;8.10;85.30;;;;;;4156593;28;19921;-82
2023/10/23 07:33:11;;;;;;;;;;;8.20;85.40;;;;;;4155000;28;20008;-82
2023/10/23 07:35:11;;;;;;;;;;;8.20;85.50;;;;;;4147529;28;19971;-82
2023/10/23 07:37:17;;;;;;;;;;;8.20;85.40;;;;;;4156102;28;20092;-82
2023/10/23 07:39:19;;;;;;;;;;;8.20;85.50;;;;;;4121815;28;19921;-81
2023/10/23 07:41:21;;;;;;;;;;;8.30;85.60;;;;;;4137513;28;19921;-83
2023/10/23 07:43:42;;;;;;;;;;;8.30;85.60;;;;;;4148485;28;19968;-83
2023/10/23 07:45:43;;;;;;;;;;;8.30;85.60;;;;;;4147537;28;20409;-82
2023/10/23 07:47:43;;;;;;;;;;;8.30;85.60;;;;;;4142803;28;19976;-82
2023/10/23 07:49:44;;;;;;;;;;;8.30;85.80;;;;;;4157779;28;19917;-82
2023/10/23 07:51:45;;;;;;;;;;;8.40;85.90;;;;;;4139791;28;20030;-82
2023/10/23 07:53:45;;;;;;;;;;;8.40;85.80;;;;;;4125709;28;19921;-82
2023/10/23 07:55:46;;;;;;;;;;;8.40;85.90;;;;;;4138274;28;19932;-83
2023/10/23 07:57:46;;;;;;;;;;;8.50;85.90;;;;;;4136176;28;19917;-82
2023/10/23 07:59:47;;;;;;;;;;;8.60;86.00;;;;;;4123539;28;19953;-82
2023/10/23 08:01:47;;;;;;;;;;;8.50;86.00;;;;;;4140723;28;20143;-82
2023/10/23 08:03:48;;;;;;;;;;;8.50;86.00;;;;;;4139570;28;19922;-82
2023/10/23 08:05:48;;;;;;;;;;;8.60;86.10;;;;;;4156793;28;19932;-83
2023/10/23 08:07:49;;;;;;;;;;;8.60;86.00;;;;;;4157226;28;20407;-82
2023/10/23 08:09:49;;;;;;;;;;;8.70;86.10;;;;;;4134154;28;20011;-83
2023/10/23 08:11:50;;;;;;;;;;;8.70;86.10;;;;;;4157209;28;19921;-83
2023/10/23 08:13:51;;;;;;;;;;;8.70;86.10;;;;;;4159818;28;20636;-82
2023/10/23 08:15:52;;;;;;;;;;;8.80;86.00;;;;;;4158913;28;19932;-83
2023/10/23 08:17:52;;;;;;;;;;;8.90;86.00;;;;;;4158441;28;19979;-82
2023/10/23 08:19:56;;;;;;;;;;;8.90;86.00;;;;;;4137865;28;19927;-82
2023/10/23 08:21:57;;;;;;;;;;;8.90;86.00;;;;;;4157745;28;20122;-83
2023/10/23 08:23:57;;;;;;;;;;;8.90;85.90;;;;;;4143924;28;19925;-83
2023/10/23 08:25:58;;;;;;;;;;;8.90;85.90;;;;;;4150876;28;20007;-82
2023/10/23 08:27:59;;;;;;;;;;;9.00;86.00;;;;;;4146224;28;19917;-82
2023/10/23 08:30:00;;;;;;;;;;;8.90;85.90;;;;;;4144967;28;20541;-82
2023/10/23 08:32:01;;;;;;;;;;;8.90;85.90;;;;;;4151427;28;19928;-82
2023/10/23 08:34:02;;;;;;;;;;;9.00;85.90;;;;;;4150061;28;19910;-82
2023/10/23 08:36:03;;;;;;;;;;;9.00;86.00;;;;;;4168603;28;19905;-83
2023/10/23 08:38:04;;;;;;;;;;;9.00;86.10;;;;;;4161181;28;20008;-83
2023/10/23 08:40:06;;;;;;;;;;;9.20;86.20;;;;;;4163600;28;19917;-82
2023/10/23 08:42:06;;;;;;;;;;;9.10;86.20;;;;;;4131956;28;20473;-82
2023/10/23 08:44:07;;;;;;;;;;;9.10;86.20;;;;;;4142284;28;19963;-83
2023/10/23 08:46:08;;;;;;;;;;;9.20;86.40;;;;;;4142313;28;19921;-83
2023/10/23 08:48:09;;;;;;;;;;;9.20;86.50;;;;;;4148119;28;19933;-82
2023/10/23 08:50:10;;;;;;;;;;;9.30;86.50;;;;;;4149667;28;19921;-82
2023/10/23 08:52:11;;;;;;;;;;;9.40;86.70;;;;;;4152261;28;19913;-83
2023/10/23 08:54:11;;;;;;;;;;;9.30;86.70;;;;;;4153659;28;19917;-82
2023/10/23 08:56:12;;;;;;;;;;;9.40;86.80;;;;;;4152905;28;19921;-82
2023/10/23 08:58:13;;;;;;;;;;;9.50;86.90;;;;;;4156161;28;19949;-82
2023/10/23 09:00:14;;;;;;;;;;;9.60;86.90;;;;;;4154407;28;19917;-82
2023/10/23 09:02:14;;;;;;;;;;;9.60;87.00;;;;;;4156011;28;19929;-84
2023/10/23 09:04:15;;;;;;;;;;;9.70;87.10;;;;;;4153469;28;19909;-83
2023/10/23 09:06:16;;;;;;;;;;;9.90;87.50;;;;;;4139745;28;19929;-83
2023/10/23 09:08:18;;;;;;;;;;;9.90;87.50;;;;;;4155533;28;22157;-82
2023/10/23 09:10:18;;;;;;;;;;;10.00;87.50;;;;;;4154647;28;20030;-83
2023/10/23 09:12:29;;;;;;;;;;;10.20;87.60;;;;;;4123523;28;19917;-83
2023/10/23 09:14:35;;;;;;;;;;;10.10;87.50;;;;;;4154845;28;20049;-83
2023/10/23 09:16:36;;;;;;;;;;;10.20;87.50;;;;;;4141392;28;19949;-83
2023/10/23 09:18:46;;;;;;;;;;;10.30;87.60;;;;;;4134513;28;19973;-82
2023/10/23 09:20:46;;;;;;;;;;;10.40;87.60;;;;;;4155176;28;19913;-83
2023/10/23 09:22:47;;;;;;;;;;;10.60;87.60;;;;;;4139299;28;19976;-83
2023/10/23 09:24:48;;;;;;;;;;;10.60;87.60;;;;;;4138224;28;20534;-83
2023/10/23 09:26:51;;;;;;;;;;;10.80;87.70;;;;;;4151673;28;21162;-82
2023/10/23 09:28:52;;;;;;;;;;;10.80;87.80;;;;;;4135460;28;20041;-83
2023/10/23 09:30:54;;;;;;;;;;;10.90;88.00;;;;;;4164639;28;19921;-83
2023/10/23 09:32:55;;;;;;;;;;;11.00;88.00;;;;;;4162907;28;19959;-83
2023/10/23 09:34:56;;;;;;;;;;;11.10;88.00;;;;;;4144648;28;19914;-83
2023/10/23 09:36:59;;;;;;;;;;;11.10;88.00;;;;;;4126294;28;19918;-83
2023/10/23 09:39:00;;;;;;;;;;;11.20;88.00;;;;;;4161671;28;19940;-83
2023/10/23 09:41:21;;;;;;;;;;;11.30;88.00;;;;;;4161078;28;19928;-83
2023/10/23 09:43:48;;;;;;;;;;;11.50;88.10;;;;;;4149321;28;19940;-83
2023/10/23 09:45:56;;;;;;;;;;;11.50;88.00;;;;;;4140715;28;20592;-83
2023/10/23 09:48:17;;;;;;;;;;;11.50;87.80;;;;;;4158429;28;20413;-83
2023/10/23 09:50:40;;;;;;;;;;;11.70;88.10;;;;;;4152754;28;19920;-83
2023/10/23 09:52:42;;;;;;;;;;;11.70;87.80;;;;;;4162908;28;20287;-82
2023/10/23 09:54:45;;;;;;;;;;;11.70;87.70;;;;;;4147750;28;20477;-83
2023/10/23 09:56:48;;;;;;;;;;;11.90;87.80;;;;;;4146520;28;19922;-83
2023/10/23 09:58:52;;;;;;;;;;;11.80;87.70;;;;;;4155765;28;20308;-82
2023/10/23 10:00:53;;;;;;;;;;;11.90;87.80;;;;;;4161796;28;20306;-83
2023/10/23 10:02:54;;;;;;;;;;;12.00;87.60;;;;;;4141002;28;20375;-83
2023/10/23 10:05:05;;;;;;;;;;;12.10;87.40;;;;;;4142150;28;20388;-83
2023/10/23 10:07:20;;;;;;;;;;;12.00;86.90;;;;;;4157160;28;19921;-83
2023/10/23 10:09:30;;;;;;;;;;;12.10;86.90;;;;;;4161511;28;19925;-82
2023/10/23 10:11:31;;;;;;;;;;;12.10;86.90;;;;;;4162696;28;19917;-83
2023/10/23 10:13:41;;;;;;;;;;;12.10;86.80;;;;;;4163208;28;20405;-83
2023/10/23 10:15:47;;;;;;;;;;;12.20;86.70;;;;;;4141879;28;20365;-82
2023/10/23 10:17:49;;;;;;;;;;;12.30;86.20;;;;;;4155779;28;19926;-85
2023/10/23 10:19:50;;;;;;;;;;;12.20;86.10;;;;;;4139436;28;20254;-83
2023/10/23 10:21:56;;;;;;;;;;;12.40;85.90;;;;;;4158789;28;20381;-83
2023/10/23 10:23:59;;;;;;;;;;;12.30;85.60;;;;;;4154792;28;19917;-83
2023/10/23 10:26:01;;;;;;;;;;;12.40;85.60;;;;;;4132561;28;19967;-83
2023/10/23 10:28:03;;;;;;;;;;;12.40;85.40;;;;;;4131689;28;19921;-82
2023/10/23 10:30:04;;;;;;;;;;;12.40;84.30;;;;;;4152642;28;20004;-82
2023/10/23 10:32:05;;;;;;;;;;;12.40;84.00;;;;;;4135334;28;20344;-82
2023/10/23 10:34:07;;;;;;;;;;;12.50;84.60;;;;;;4154520;28;19913;-82
2023/10/23 10:36:13;;;;;;;;;;;12.50;84.40;;;;;;4158174;28;19917;-82
2023/10/23 10:38:18;;;;;;;;;;;12.50;83.20;;;;;;4159103;28;19956;-82
2023/10/23 10:40:18;;;;;;;;;;;12.60;83.00;;;;;;4157139;28;19921;-82
2023/10/23 10:42:19;;;;;;;;;;;12.60;83.20;;;;;;4160468;28;20564;-83
2023/10/23 10:44:22;;;;;;;;;;;12.80;82.70;;;;;;4146213;28;19920;-83
2023/10/23 10:46:23;;;;;;;;;;;12.70;83.10;;;;;;4145153;28;19936;-82
2023/10/23 10:48:27;;;;;;;;;;;12.60;83.00;;;;;;4122253;28;20006;-82
2023/10/23 10:50:32;;;;;;;;;;;12.60;80.00;;;;;;4161685;28;19913;-81
2023/10/23 10:52:33;;;;;;;;;;;12.70;81.30;;;;;;4159822;28;19960;-83
2023/10/23 10:54:35;;;;;;;;;;;12.70;81.00;;;;;;4159900;28;19921;-83
2023/10/23 10:56:36;;;;;;;;;;;12.70;80.30;;;;;;4146615;28;19920;-82
2023/10/23 10:58:37;;;;;;;;;;;12.90;80.80;;;;;;4162378;28;19913;-82
2023/10/23 11:00:38;;;;;;;;;;;12.90;79.70;;;;;;4162298;28;19917;-83
2023/10/23 11:02:39;;;;;;;;;;;13.00;79.70;;;;;;4158984;28;19921;-82
2023/10/23 11:04:39;;;;;;;;;;;12.90;79.80;;;;;;4152758;28;19913;-82
2023/10/23 11:06:42;;;;;;;;;;;12.90;79.50;;;;;;4153896;28;19921;-83
2023/10/23 11:08:43;;;;;;;;;;;12.90;79.60;;;;;;4140565;28;19925;-82
2023/10/23 11:10:45;;;;;;;;;;;12.90;79.40;;;;;;4154101;28;19917;-83
2023/10/23 11:12:47;;;;;;;;;;;12.90;78.40;;;;;;4158655;28;19917;-83
2023/10/23 11:14:48;;;;;;;;;;;13.00;78.70;;;;;;4142307;28;19917;-83
2023/10/23 11:16:50;;;;;;;;;;;12.90;78.30;;;;;;4161335;28;20536;-83
2023/10/23 11:18:51;;;;;;;;;;;13.00;77.70;;;;;;4144501;28;20168;-84
2023/10/23 11:20:57;;;;;;;;;;;13.00;78.00;;;;;;4137650;28;19981;-84
2023/10/23 11:22:58;;;;;;;;;;;13.10;78.10;;;;;;4118353;28;19944;-86
2023/10/23 11:25:06;;;;;;;;;;;13.10;77.90;;;;;;4118443;28;19914;-85
2023/10/23 11:27:07;;;;;;;;;;;13.10;77.90;;;;;;4142432;28;19919;-85
2023/10/23 11:29:28;;;;;;;;;;;13.20;76.60;;;;;;4142378;28;20363;-85
2023/10/23 11:31:49;;;;;;;;;;;13.20;76.90;;;;;;4148623;28;19932;-84
2023/10/23 11:34:10;;;;;;;;;;;13.20;76.30;;;;;;4154039;28;20088;-85
2023/10/23 11:36:32;;;;;;;;;;;13.20;75.80;;;;;;4144162;28;19909;-85
2023/10/23 11:38:55;;;;;;;;;;;13.30;75.60;;;;;;4177248;28;19906;-85
2023/10/23 11:41:16;;;;;;;;;;;13.30;75.20;;;;;;4177655;28;19906;-86
2023/10/23 11:43:38;;;;;;;;;;;13.30;74.30;;;;;;4164594;28;19922;-86
2023/10/23 11:45:58;;;;;;;;;;;13.20;74.40;;;;;;4177631;28;19931;-85
2023/10/23 11:48:19;;;;;;;;;;;13.20;74.60;;;;;;4175522;28;19913;-85
2023/10/23 11:50:20;;;;;;;;;;;13.30;74.40;;;;;;4164717;28;20367;-83
2023/10/23 11:52:21;;;;;;;;;;;13.20;74.60;;;;;;4159733;28;19923;-84
2023/10/23 11:54:25;;;;;;;;;;;13.20;72.80;;;;;;4146031;28;20045;-83
2023/10/23 11:56:26;;;;;;;;;;;13.20;71.90;;;;;;4155749;28;19917;-83
2023/10/23 11:58:27;;;;;;;;;;;13.20;72.00;;;;;;4146912;28;19996;-83
2023/10/23 12:00:33;;;;;;;;;;;13.20;72.00;;;;;;4147926;28;19924;-84
2023/10/23 12:02:34;;;;;;;;;;;13.20;70.60;;;;;;4145261;28;19922;-83
2023/10/23 12:04:35;;;;;;;;;;;13.20;71.00;;;;;;4158399;28;20683;-82
2023/10/23 12:06:37;;;;;;;;;;;13.20;70.70;;;;;;4161094;28;19925;-83
2023/10/23 12:08:37;;;;;;;;;;;13.30;70.50;;;;;;4159794;28;19920;-83
2023/10/23 12:10:38;;;;;;;;;;;13.30;70.80;;;;;;4162463;28;19924;-83
2023/10/23 12:12:40;;;;;;;;;;;13.20;71.00;;;;;;4160726;28;20217;-83
2023/10/23 12:14:40;;;;;;;;;;;13.20;71.10;;;;;;4143898;28;19921;-83
2023/10/23 12:16:41;;;;;;;;;;;13.20;71.40;;;;;;4165323;28;19917;-83
2023/10/23 12:18:42;;;;;;;;;;;13.20;71.30;;;;;;4166183;28;20707;-82
2023/10/23 12:20:43;;;;;;;;;;;13.20;71.10;;;;;;4160325;28;19917;-82
2023/10/23 12:22:45;;;;;;;;;;;13.20;70.40;;;;;;4160694;28;19963;-82
2023/10/23 12:24:45;;;;;;;;;;;13.20;70.60;;;;;;4160236;28;19928;-83
2023/10/23 12:26:46;;;;;;;;;;;13.20;70.10;;;;;;4140773;28;20300;-83
2023/10/23 12:28:47;;;;;;;;;;;13.30;70.50;;;;;;4162307;28;19917;-83
2023/10/23 12:30:48;;;;;;;;;;;13.30;70.10;;;;;;4140495;28;20480;-82
2023/10/23 12:33:08;;;;;;;;;;;13.20;69.80;;;;;;4142346;28;19941;-83
2023/10/23 12:35:29;;;;;;;;;;;13.20;70.70;;;;;;4150887;28;20383;-82